Time;durP1;ratioP1;P1;durP2;ratioP2;P2;SDS_P1;SDS_P2;PMS_P1;PMS_P2;Temp;Humidity;BMP_temperature;BMP_pressure;BME280_temperature;BME280_humidity;BME280_pressure;Samples;Min_cycle;Max_cycle;Signal;HPM_P1;HPM_P2
2022/05/30 00:01:19;;;;;;;3.60;1.63;;;;;;;7.78;83.32;101386.16;5019531;28;20029;-78
2022/05/30 00:03:45;;;;;;;1.85;1.20;;;;;;;7.60;84.55;101380.69;5013525;28;20038;-79
2022/05/30 00:06:13;;;;;;;4.45;1.50;;;;;;;7.49;85.73;101379.84;4995209;28;20403;-79
2022/05/30 00:08:39;;;;;;;2.55;1.67;;;;;;;7.32;86.23;101390.41;5005069;28;20410;-79
2022/05/30 00:11:07;;;;;;;3.05;1.30;;;;;;;6.99;87.01;101385.28;4998409;28;20068;-83
2022/05/30 00:13:34;;;;;;;3.90;1.85;;;;;;;6.75;89.15;101390.13;5008494;28;20030;-78
2022/05/30 00:16:08;;;;;;;3.88;1.50;;;;;;;6.58;90.47;101389.75;5008206;28;20026;-78
2022/05/30 00:18:34;;;;;;;5.07;1.45;;;;;;;6.54;92.42;101383.00;4990553;28;20084;-79
2022/05/30 00:21:00;;;;;;;2.15;1.35;;;;;;;6.69;91.26;101371.94;4990460;28;20030;-79
2022/05/30 00:23:26;;;;;;;2.97;1.58;;;;;;;6.60;90.67;101369.09;4994398;28;20181;-79
2022/05/30 00:25:52;;;;;;;4.40;2.00;;;;;;;6.52;90.88;101366.28;4990979;28;20018;-82
2022/05/30 00:28:18;;;;;;;3.33;1.70;;;;;;;6.31;91.26;101376.16;4972532;28;20026;-77
2022/05/30 00:30:45;;;;;;;3.38;1.67;;;;;;;6.06;92.51;101361.38;5002762;28;20403;-78
2022/05/30 00:33:12;;;;;;;4.97;1.80;;;;;;;5.86;93.59;101371.09;4987576;28;20030;-78
2022/05/30 00:35:38;;;;;;;4.32;1.98;;;;;;;5.66;95.43;101364.75;4999038;28;20026;-78
2022/05/30 00:38:04;;;;;;;3.88;1.92;;;;;;;5.51;97.06;101372.22;5020921;28;20034;-78
2022/05/30 00:40:31;;;;;;;2.47;1.58;;;;;;;5.43;97.64;101369.34;4991398;28;20080;-79
2022/05/30 00:43:07;;;;;;;2.67;1.70;;;;;;;5.36;99.27;101370.81;5006723;28;20400;-81
2022/05/30 00:45:33;;;;;;;3.95;1.60;;;;;;;5.36;100.00;101368.16;5008516;28;20041;-78
2022/05/30 00:47:59;;;;;;;5.53;1.92;;;;;;;5.37;100.00;101357.38;4976673;28;20026;-78
2022/05/30 00:50:24;;;;;;;2.58;1.90;;;;;;;5.44;100.00;101361.22;4991533;28;20022;-80
2022/05/30 00:52:50;;;;;;;5.25;1.80;;;;;;;5.44;100.00;101352.38;5008582;28;20076;-78
2022/05/30 00:55:19;;;;;;;6.38;1.63;;;;;;;5.51;100.00;101356.22;5008359;28;20133;-81
2022/05/30 00:57:47;;;;;;;2.72;1.73;;;;;;;5.64;100.00;101350.72;4987485;28;20029;-78
2022/05/30 01:00:22;;;;;;;4.88;1.45;;;;;;;5.80;100.00;101348.44;5005247;28;21002;-78
2022/05/30 01:08:16;;;;;;;4.10;1.40;;;;;;;6.20;100.00;101336.19;5009452;28;20030;-78
2022/05/30 01:10:45;;;;;;;2.55;1.75;;;;;;;6.49;98.67;101326.47;4988430;28;20045;-79
2022/05/30 01:13:13;;;;;;;2.13;1.48;;;;;;;6.81;96.26;101333.44;4998020;28;20030;-79
2022/05/30 01:15:38;;;;;;;5.40;1.70;;;;;;;6.94;94.89;101323.34;5015257;28;20212;-78
2022/05/30 01:18:20;;;;;;;2.63;1.35;;;;;;;7.13;93.88;101324.34;4994978;28;20025;-79
2022/05/30 01:20:49;;;;;;;2.72;1.70;;;;;;;7.19;92.80;101329.13;5024604;28;20038;-78
2022/05/30 01:23:53;;;;;;;8.40;1.48;;;;;;;7.24;92.17;101327.72;5007150;28;20026;-78
2022/05/30 01:26:31;;;;;;;4.05;1.45;;;;;;;7.35;91.13;101324.06;4984627;28;20030;-77
2022/05/30 01:29:04;;;;;;;2.95;1.55;;;;;;;7.30;90.86;101318.28;5018819;28;20026;-79
2022/05/30 01:31:30;;;;;;;5.32;1.50;;;;;;;7.24;91.69;101319.69;4977632;28;20368;-79
2022/05/30 01:33:56;;;;;;;2.72;1.60;;;;;;;7.20;91.61;101320.16;4994511;28;20547;-80
2022/05/30 01:36:26;;;;;;;2.42;1.92;;;;;;;7.14;91.77;101316.16;5010875;28;20080;-80
2022/05/30 01:38:52;;;;;;;5.20;1.83;;;;;;;6.80;92.67;101272.94;4999573;28;20053;-79
2022/05/30 01:41:18;;;;;;;5.35;1.13;;;;;;;6.93;93.25;101305.63;5000278;28;20060;-78
2022/05/30 01:43:45;;;;;;;6.35;1.60;;;;;;;6.91;93.33;101309.41;4987439;28;20515;-80
2022/05/30 01:46:16;;;;;;;3.33;1.52;;;;;;;6.85;93.82;101317.97;5005730;28;20052;-82
2022/05/30 01:48:43;;;;;;;2.83;1.45;;;;;;;6.74;94.47;101308.25;5000869;28;20036;-79
2022/05/30 01:51:08;;;;;;;3.78;1.90;;;;;;;6.59;95.57;101294.44;5002005;28;20026;-79
2022/05/30 01:53:34;;;;;;;3.88;1.58;;;;;;;6.48;96.05;101295.38;5004062;28;20036;-80
2022/05/30 01:56:00;;;;;;;6.20;1.70;;;;;;;6.38;97.18;101297.19;4985677;28;20121;-78
2022/05/30 01:58:25;;;;;;;2.75;1.85;;;;;;;6.19;97.92;101289.09;5006556;28;20030;-78
2022/05/30 02:00:51;;;;;;;3.72;1.58;;;;;;;6.00;98.45;101287.19;5008952;28;20056;-79
2022/05/30 02:03:17;;;;;;;4.20;1.80;;;;;;;5.82;100.00;101289.56;5005589;28;20040;-78
2022/05/30 02:05:43;;;;;;;5.13;1.77;;;;;;;5.60;100.00;101290.56;5012892;28;20029;-78
2022/05/30 02:08:09;;;;;;;7.85;1.98;;;;;;;5.44;100.00;101291.03;5008799;28;20033;-80
2022/05/30 02:10:34;;;;;;;4.43;1.90;;;;;;;5.33;100.00;101293.75;5020897;28;20033;-79
2022/05/30 02:13:02;;;;;;;3.00;1.73;;;;;;;5.28;100.00;101289.63;5005218;28;20049;-80
2022/05/30 02:15:28;;;;;;;4.13;1.92;;;;;;;5.26;100.00;101283.59;4982540;28;20021;-77
2022/05/30 02:17:54;;;;;;;3.40;1.80;;;;;;;5.37;100.00;101284.50;4990135;28;20361;-78
2022/05/30 02:20:20;;;;;;;4.15;1.70;;;;;;;5.57;100.00;101286.34;5007916;28;20065;-80
2022/05/30 02:22:48;;;;;;;6.10;2.03;;;;;;;5.72;100.00;101278.88;5010398;28;20030;-80
2022/05/30 02:25:13;;;;;;;5.70;2.20;;;;;;;5.72;100.00;101269.03;4994078;28;20039;-80
2022/05/30 02:27:41;;;;;;;4.43;1.95;;;;;;;5.85;100.00;101276.84;5020349;28;20026;-78
2022/05/30 02:30:08;;;;;;;2.58;1.70;;;;;;;6.04;100.00;101273.44;5008029;28;20030;-79
2022/05/30 02:32:34;;;;;;;6.40;2.08;;;;;;;6.16;100.00;101268.84;5004760;28;20030;-79
2022/05/30 02:37:43;;;;;;;6.18;2.00;;;;;;;6.19;100.00;101270.41;5009017;28;20033;-79
2022/05/30 02:40:09;;;;;;;3.05;1.63;;;;;;;6.16;100.00;101261.66;5005762;28;20368;-79
2022/05/30 02:42:35;;;;;;;5.13;2.00;;;;;;;6.25;100.00;101259.19;5004318;28;20038;-79
2022/05/30 02:45:01;;;;;;;3.35;1.83;;;;;;;6.28;100.00;101265.09;5003040;28;20033;-79
2022/05/30 02:47:29;;;;;;;6.82;2.10;;;;;;;6.34;100.00;101242.34;4993326;28;20077;-78
2022/05/30 02:49:55;;;;;;;5.88;2.38;;;;;;;6.54;100.00;101260.13;4991684;28;20166;-79
2022/05/30 02:52:20;;;;;;;4.43;1.85;;;;;;;6.76;100.00;101259.03;4999524;28;20522;-78
2022/05/30 02:54:46;;;;;;;4.00;1.75;;;;;;;6.83;100.00;101224.56;5003217;28;20038;-79
2022/05/30 02:57:12;;;;;;;4.88;1.77;;;;;;;7.13;100.00;101242.28;5022146;28;20160;-77
2022/05/30 02:59:38;;;;;;;3.72;1.58;;;;;;;7.05;100.00;101220.75;5006023;28;20081;-78
2022/05/30 03:02:03;;;;;;;2.58;1.60;;;;;;;7.22;100.00;101249.47;4988329;28;20033;-79
2022/05/30 03:04:29;;;;;;;6.68;2.35;;;;;;;7.11;100.00;101246.94;5006347;28;20048;-82
2022/05/30 03:06:55;;;;;;;1.98;1.35;;;;;;;6.94;100.00;101245.81;4990986;28;20049;-80
2022/05/30 03:09:20;;;;;;;3.17;1.65;;;;;;;6.82;100.00;101241.56;4992161;28;20030;-78
2022/05/30 03:11:46;;;;;;;5.18;2.03;;;;;;;6.63;100.00;101237.06;4990061;28;20053;-78
2022/05/30 03:14:12;;;;;;;4.65;1.70;;;;;;;6.43;100.00;101229.97;5006483;28;20515;-78
2022/05/30 03:16:37;;;;;;;4.85;3.20;;;;;;;6.35;100.00;101233.34;4987635;28;20469;-78
2022/05/30 03:19:03;;;;;;;2.63;1.77;;;;;;;6.24;100.00;101228.13;4986234;28;20037;-78
2022/05/30 03:21:29;;;;;;;5.18;2.10;;;;;;;6.00;100.00;101223.13;4999288;28;20088;-77
2022/05/30 03:23:54;;;;;;;3.88;2.08;;;;;;;5.96;100.00;101230.56;4986862;28;20451;-77
2022/05/30 03:26:20;;;;;;;4.55;1.90;;;;;;;5.82;100.00;101231.75;5002365;28;20044;-79
2022/05/30 03:28:48;;;;;;;3.08;2.20;;;;;;;5.62;100.00;101235.28;5006099;28;20037;-77
2022/05/30 03:31:13;;;;;;;2.83;1.70;;;;;;;5.52;100.00;101227.22;5006193;28;20384;-77
2022/05/30 03:33:40;;;;;;;2.25;1.70;;;;;;;5.46;100.00;101235.75;5016578;28;20088;-77
2022/05/30 03:36:26;;;;;;;3.75;1.63;;;;;;;5.25;100.00;101225.91;4994406;28;20022;-76
2022/05/30 03:38:52;;;;;;;4.25;1.85;;;;;;;5.09;100.00;101217.53;5004804;28;20057;-79
2022/05/30 03:41:18;;;;;;;2.10;1.50;;;;;;;5.00;100.00;101216.50;5016608;28;20021;-78
2022/05/30 03:43:43;;;;;;;4.32;1.90;;;;;;;5.05;100.00;101222.28;5002037;28;20420;-77
2022/05/30 03:46:09;;;;;;;2.88;1.63;;;;;;;5.11;100.00;101226.25;4978497;28;20036;-76
2022/05/30 03:48:35;;;;;;;3.05;1.58;;;;;;;5.18;100.00;101227.41;5018801;28;20154;-77
2022/05/30 03:51:03;;;;;;;2.97;1.92;;;;;;;5.26;100.00;101214.25;4999108;28;20026;-77
2022/05/30 03:53:29;;;;;;;5.88;2.20;;;;;;;5.42;100.00;101218.28;5002003;28;20060;-78
2022/05/30 03:55:54;;;;;;;3.83;1.98;;;;;;;5.51;100.00;101209.53;5004186;28;20490;-77
2022/05/30 03:58:21;;;;;;;2.97;1.90;;;;;;;5.60;100.00;101211.38;4988432;28;20127;-78
2022/05/30 04:00:47;;;;;;;4.47;1.98;;;;;;;5.67;100.00;101207.22;5001212;28;20057;-77
2022/05/30 04:03:13;;;;;;;3.88;2.20;;;;;;;5.76;100.00;101210.06;4988026;28;20489;-78
2022/05/30 04:05:39;;;;;;;7.85;2.30;;;;;;;5.88;100.00;101206.34;5008931;28;20476;-76
2022/05/30 04:08:05;;;;;;;4.18;1.85;;;;;;;5.87;100.00;101180.59;5024599;28;20030;-77
2022/05/30 04:10:31;;;;;;;6.05;2.40;;;;;;;6.13;100.00;101203.19;5000051;28;20467;-78
2022/05/30 04:13:06;;;;;;;3.83;2.17;;;;;;;6.25;100.00;101214.63;4994026;28;20030;-77
2022/05/30 04:15:32;;;;;;;5.13;1.90;;;;;;;6.32;100.00;101206.91;4999466;28;20041;-77
2022/05/30 04:17:58;;;;;;;5.82;2.10;;;;;;;6.38;100.00;101203.72;5002831;28;20025;-78
2022/05/30 04:20:24;;;;;;;4.65;2.28;;;;;;;6.51;100.00;101204.28;4973027;28;20044;-77
2022/05/30 04:22:49;;;;;;;5.00;2.22;;;;;;;6.55;100.00;101178.97;5005518;28;20085;-82
2022/05/30 04:25:15;;;;;;;3.38;1.85;;;;;;;6.78;100.00;101197.41;4979931;28;20034;-78
2022/05/30 04:27:40;;;;;;;4.82;2.10;;;;;;;6.78;100.00;101182.22;5003122;28;20068;-78
2022/05/30 04:30:07;;;;;;;3.97;1.70;;;;;;;6.75;100.00;101187.84;5007535;28;20468;-79
2022/05/30 04:32:34;;;;;;;4.13;1.90;;;;;;;6.80;100.00;101187.41;5005329;28;20029;-79
2022/05/30 04:35:00;;;;;;;3.53;1.63;;;;;;;6.81;100.00;101187.28;5008462;28;20030;-79
2022/05/30 04:37:28;;;;;;;4.82;1.83;;;;;;;6.86;100.00;101186.03;5004219;28;20042;-78
2022/05/30 04:39:56;;;;;;;6.47;2.00;;;;;;;6.84;100.00;101180.81;5008072;28;20507;-78
2022/05/30 04:42:21;;;;;;;2.92;1.65;;;;;;;6.92;100.00;101188.97;5001548;28;20021;-78
2022/05/30 04:44:47;;;;;;;3.83;2.13;;;;;;;6.96;100.00;101182.38;5006764;28;20044;-78
2022/05/30 04:47:12;;;;;;;6.68;2.15;;;;;;;7.07;100.00;101185.88;5003770;28;20468;-79
2022/05/30 04:49:38;;;;;;;6.53;2.42;;;;;;;7.14;100.00;101182.47;5001597;28;20488;-77
2022/05/30 04:52:05;;;;;;;5.43;2.67;;;;;;;7.25;100.00;101174.31;4990094;28;20057;-82
2022/05/30 04:54:30;;;;;;;4.55;1.85;;;;;;;7.40;100.00;101172.00;5007939;28;20036;-80
2022/05/30 04:56:56;;;;;;;5.20;2.00;;;;;;;7.54;100.00;101180.53;4986866;28;20869;-77
2022/05/30 04:59:22;;;;;;;5.70;1.90;;;;;;;7.66;100.00;101169.50;5002145;28;20033;-77
2022/05/30 05:01:47;;;;;;;5.82;1.98;;;;;;;7.76;100.00;101168.66;5003322;28;20491;-78
2022/05/30 05:04:14;;;;;;;5.47;2.20;;;;;;;7.88;100.00;101164.78;5000265;28;20026;-78
2022/05/30 05:06:43;;;;;;;7.47;1.90;;;;;;;7.96;100.00;101170.22;5000724;28;20112;-79
2022/05/30 05:09:18;;;;;;;3.47;1.90;;;;;;;8.05;100.00;101177.38;5016638;28;20030;-78
2022/05/30 05:11:46;;;;;;;8.60;1.80;;;;;;;8.11;100.00;101170.59;5006919;28;20460;-78
2022/05/30 05:14:12;;;;;;;3.17;1.73;;;;;;;8.19;100.00;101165.31;5001675;28;20041;-78
2022/05/30 05:16:38;;;;;;;2.70;1.20;;;;;;;8.26;100.00;101162.88;4971450;28;20069;-78
2022/05/30 05:19:05;;;;;;;3.10;1.50;;;;;;;8.38;100.00;101170.53;5003125;28;20037;-82
2022/05/30 05:21:35;;;;;;;6.40;1.90;;;;;;;8.22;100.00;101142.75;4988423;28;20030;-79
2022/05/30 05:24:02;;;;;;;5.75;2.15;;;;;;;8.35;100.00;101162.81;5001974;28;20057;-78
2022/05/30 05:26:28;;;;;;;3.50;1.75;;;;;;;8.36;100.00;101152.94;4996653;28;20018;-78
2022/05/30 05:28:54;;;;;;;6.47;2.00;;;;;;;8.33;100.00;101148.72;5022550;28;20084;-78
2022/05/30 05:31:26;;;;;;;7.28;2.10;;;;;;;8.40;100.00;101153.53;4999867;28;20425;-77
2022/05/30 05:33:53;;;;;;;5.72;2.00;;;;;;;8.47;100.00;101151.94;5006485;28;20716;-77
2022/05/30 05:36:24;;;;;;;6.68;2.10;;;;;;;8.56;100.00;101145.63;5013072;28;20030;-79
2022/05/30 05:38:50;;;;;;;6.35;2.05;;;;;;;8.65;100.00;101147.38;4996260;28;20084;-80
2022/05/30 05:41:16;;;;;;;5.97;2.15;;;;;;;8.73;100.00;101141.25;5003355;28;20033;-79
2022/05/30 05:43:41;;;;;;;4.25;2.30;;;;;;;8.86;100.00;101144.38;4990381;28;20416;-77
2022/05/30 05:46:15;;;;;;;6.40;2.28;;;;;;;8.92;100.00;101133.06;4974037;28;20099;-78
2022/05/30 05:48:41;;;;;;;9.88;2.22;;;;;;;8.97;98.57;101137.91;5004460;28;20027;-78
2022/05/30 05:51:06;;;;;;;4.82;2.28;;;;;;;8.93;98.13;101137.41;4988669;28;20041;-79
2022/05/30 05:53:32;;;;;;;4.00;2.05;;;;;;;8.87;97.31;101130.00;4998701;28;20434;-79
2022/05/30 05:55:57;;;;;;;6.25;2.20;;;;;;;8.89;97.96;101135.19;5019129;28;20116;-78
2022/05/30 05:58:23;;;;;;;4.80;2.10;;;;;;;8.79;97.72;101120.03;5003611;28;20417;-77
2022/05/30 06:00:49;;;;;;;5.32;2.30;;;;;;;8.89;97.33;101129.81;5001208;28;20511;-77
2022/05/30 06:03:15;;;;;;;6.75;2.63;;;;;;;8.92;96.98;101126.84;4998234;28;20734;-79
2022/05/30 06:05:40;;;;;;;4.93;2.70;;;;;;;8.97;97.41;101127.19;4981435;28;20041;-78
2022/05/30 06:08:06;;;;;;;4.15;2.42;;;;;;;8.96;97.18;101125.53;5001336;28;20042;-77
2022/05/30 06:10:33;;;;;;;6.75;2.28;;;;;;;8.97;97.75;101116.47;4980069;28;20038;-79
2022/05/30 06:12:59;;;;;;;5.82;1.92;;;;;;;8.98;97.80;101113.63;5009215;28;20029;-79
2022/05/30 06:15:24;;;;;;;6.03;2.53;;;;;;;8.94;97.94;101112.25;4982223;28;20365;-78
2022/05/30 06:17:50;;;;;;;3.58;2.58;;;;;;;9.00;97.64;101118.84;4999939;28;20022;-78
2022/05/30 06:20:21;;;;;;;5.90;2.40;;;;;;;8.99;97.97;101101.06;5000082;28;20411;-79
2022/05/30 06:22:47;;;;;;;8.35;2.60;;;;;;;9.17;97.04;101115.28;4971626;28;20042;-81
2022/05/30 06:25:13;;;;;;;7.28;4.18;;;;;;;9.28;97.18;101121.38;4989393;28;20026;-78
2022/05/30 06:27:38;;;;;;;5.90;2.42;;;;;;;9.36;96.46;101124.09;5005492;28;20034;-79
2022/05/30 06:30:05;;;;;;;6.07;2.45;;;;;;;9.47;96.04;101113.09;4986388;28;20041;-80
2022/05/30 06:32:30;;;;;;;4.00;2.20;;;;;;;9.55;95.42;101112.28;4988351;28;20088;-79
2022/05/30 06:34:56;;;;;;;6.35;2.70;;;;;;;9.64;95.39;101112.19;4980917;28;20033;-79
2022/05/30 06:37:21;;;;;;;9.63;3.10;;;;;;;9.62;95.59;101081.13;5006784;28;20101;-79
2022/05/30 06:39:47;;;;;;;5.18;2.72;;;;;;;9.94;94.70;101103.72;5007115;28;20034;-78
2022/05/30 06:42:13;;;;;;;4.82;2.65;;;;;;;10.10;94.05;101104.59;4994187;28;20487;-78
2022/05/30 06:44:39;;;;;;;3.88;2.35;;;;;;;10.26;92.61;101101.09;5011411;28;20033;-78
2022/05/30 06:47:07;;;;;;;7.68;2.55;;;;;;;10.42;91.85;101094.09;5006411;28;20444;-79
2022/05/30 06:49:34;;;;;;;7.22;2.90;;;;;;;10.70;90.63;101100.84;5011483;28;20512;-78
2022/05/30 06:51:59;;;;;;;4.03;1.85;;;;;;;10.86;88.90;101097.31;4996194;28;20022;-78
2022/05/30 06:54:25;;;;;;;8.13;2.72;;;;;;;11.00;86.94;101090.41;5002273;28;20487;-79
2022/05/30 06:59:35;;;;;;;3.80;2.65;;;;;;;11.20;85.00;101091.72;5015959;28;20038;-78
2022/05/30 07:02:03;;;;;;;5.90;2.47;;;;;;;11.37;82.73;101094.34;4989322;28;20045;-79
2022/05/30 07:04:33;;;;;;;8.23;2.53;;;;;;;11.42;81.90;101100.91;4999281;28;20033;-79
2022/05/30 07:07:02;;;;;;;12.57;2.88;;;;;;;11.51;81.80;101095.47;5014029;28;20037;-79
2022/05/30 07:09:28;;;;;;;5.03;2.20;;;;;;;11.62;80.74;101087.88;4989156;28;20106;-80
2022/05/30 07:11:54;;;;;;;4.30;2.00;;;;;;;11.73;81.21;101086.66;4993959;28;20033;-79
2022/05/30 07:14:19;;;;;;;4.90;2.20;;;;;;;11.73;79.74;101086.66;5015652;28;20113;-78
2022/05/30 07:16:45;;;;;;;13.57;2.97;;;;;;;11.82;78.87;101082.91;5001372;28;20026;-78
2022/05/30 07:19:11;;;;;;;9.05;2.28;;;;;;;11.94;79.70;101085.25;5002860;28;20523;-80
2022/05/30 07:21:38;;;;;;;5.47;2.35;;;;;;;11.95;78.42;101066.19;5007839;28;20037;-79
2022/05/30 07:24:05;;;;;;;5.90;1.85;;;;;;;12.17;76.10;101079.88;4988160;28;20128;-79
2022/05/30 07:26:31;;;;;;;5.65;2.40;;;;;;;12.21;74.89;101076.66;4993588;28;20037;-79
2022/05/30 07:28:56;;;;;;;11.20;2.17;;;;;;;12.40;73.82;101083.41;5016934;28;20026;-80
2022/05/30 07:31:25;;;;;;;6.88;2.20;;;;;;;12.48;74.65;101077.13;4999292;28;20081;-77
2022/05/30 07:33:51;;;;;;;6.35;2.13;;;;;;;12.71;75.00;101069.84;5002679;28;20033;-80
2022/05/30 07:36:22;;;;;;;4.60;1.77;;;;;;;12.97;72.88;101065.91;4991147;28;20061;-79
2022/05/30 07:38:48;;;;;;;4.68;1.88;;;;;;;13.19;71.96;101070.38;5021082;28;20064;-80
2022/05/30 07:41:14;;;;;;;3.03;1.67;;;;;;;13.40;70.74;101066.16;5004512;28;20036;-79
2022/05/30 07:43:40;;;;;;;8.23;2.60;;;;;;;13.62;68.17;101067.88;5004200;28;20030;-76
2022/05/30 07:46:11;;;;;;;4.75;2.67;;;;;;;13.60;67.52;101037.53;5021874;28;20034;-78
2022/05/30 07:48:37;;;;;;;4.72;1.60;;;;;;;13.97;66.78;101057.31;5000189;28;20121;-77
2022/05/30 07:51:04;;;;;;;5.40;1.70;;;;;;;14.04;65.58;101060.91;4999769;28;20038;-77
2022/05/30 07:53:30;;;;;;;3.70;1.95;;;;;;;14.22;65.93;101059.66;4997624;28;20034;-79
2022/05/30 07:55:57;;;;;;;3.15;1.77;;;;;;;14.43;63.89;101062.34;5003469;28;20068;-77
2022/05/30 07:58:23;;;;;;;8.73;2.38;;;;;;;14.47;64.50;101051.97;5003417;28;20030;-79
2022/05/30 08:00:51;;;;;;;7.07;2.03;;;;;;;14.66;62.80;101061.31;5011651;28;20772;-77
2022/05/30 08:03:17;;;;;;;7.05;2.20;;;;;;;14.53;63.25;101053.94;5004234;28;20041;-77
2022/05/30 08:05:47;;;;;;;3.13;1.88;;;;;;;14.47;63.52;101046.56;4991560;28;20033;-78
2022/05/30 08:08:14;;;;;;;3.83;1.83;;;;;;;14.57;62.29;101057.09;4972932;28;20033;-77
2022/05/30 08:10:40;;;;;;;22.42;4.10;;;;;;;14.73;62.88;101052.22;5018658;28;20056;-76
2022/05/30 08:13:06;;;;;;;9.77;2.35;;;;;;;15.35;60.78;101049.75;4993056;28;20116;-78
2022/05/30 08:15:31;;;;;;;6.07;2.20;;;;;;;16.10;57.44;101042.53;4995108;28;20350;-77
2022/05/30 08:17:58;;;;;;;6.20;2.03;;;;;;;16.77;53.80;101042.59;4995298;28;20045;-76
2022/05/30 08:20:27;;;;;;;4.30;1.80;;;;;;;18.65;47.86;101039.72;4997752;28;20049;-77
2022/05/30 08:22:54;;;;;;;7.45;1.70;;;;;;;20.73;42.30;101029.63;5003003;28;20476;-79
2022/05/30 08:25:23;;;;;;;5.95;1.70;;;;;;;19.84;41.86;101042.28;4969061;28;20033;-79
2022/05/30 08:27:51;;;;;;;4.38;1.77;;;;;;;19.70;40.94;101036.19;5006041;28;20030;-77
2022/05/30 08:30:19;;;;;;;2.45;1.38;;;;;;;18.87;41.55;101027.41;5002590;28;20042;-78
2022/05/30 08:32:46;;;;;;;4.90;1.85;;;;;;;18.28;44.09;101033.31;5003977;28;20034;-78
2022/05/30 08:35:14;;;;;;;2.13;1.50;;;;;;;18.46;44.02;101028.78;4998682;28;20042;-78
2022/05/30 08:37:41;;;;;;;1.88;1.38;;;;;;;18.56;42.48;101003.78;5007174;28;20121;-79
2022/05/30 08:43:08;;;;;;;2.80;1.02;;;;;;;18.23;39.35;101014.91;5002569;28;20037;-79
2022/05/30 08:45:34;;;;;;;2.88;1.38;;;;;;;17.71;38.29;101017.72;5005953;28;20175;-78
2022/05/30 08:48:00;;;;;;;2.17;1.63;;;;;;;17.37;40.16;100991.72;5024185;28;20679;-80
2022/05/30 08:50:37;;;;;;;2.63;1.27;;;;;;;17.89;39.55;101008.88;4986267;28;20072;-79
2022/05/30 08:53:31;;;;;;;2.50;1.10;;;;;;;18.04;38.79;101011.28;4999379;28;20033;-78
2022/05/30 08:56:17;;;;;;;1.98;1.17;;;;;;;17.74;40.54;101005.56;5002216;28;20042;-79
2022/05/30 08:58:46;;;;;;;2.53;1.48;;;;;;;17.65;41.56;100999.56;4982111;28;20049;-80
2022/05/30 09:01:15;;;;;;;2.13;1.30;;;;;;;18.24;41.48;100997.53;5010156;28;20038;-79
2022/05/30 09:04:08;;;;;;;4.97;1.38;;;;;;;19.43;39.50;100986.56;4974178;28;20128;-80
2022/05/30 09:06:47;;;;;;;3.83;1.38;;;;;;;19.39;40.05;100963.53;5005528;28;20033;-78
2022/05/30 09:09:20;;;;;;;6.82;1.60;;;;;;;19.99;39.50;100991.69;5018225;28;20023;-81
2022/05/30 09:12:02;;;;;;;2.50;1.67;;;;;;;19.75;36.65;100995.41;4982708;28;20030;-81
2022/05/30 09:14:39;;;;;;;2.55;1.17;;;;;;;19.45;39.50;100996.19;5007955;28;20026;-81
2022/05/30 09:17:10;;;;;;;6.00;1.70;;;;;;;19.37;39.17;100999.22;5008932;28;20033;-79
2022/05/30 09:19:39;;;;;;;4.28;1.50;;;;;;;18.93;38.93;100989.44;4985019;28;20037;-83
2022/05/30 09:22:12;;;;;;;3.03;1.55;;;;;;;18.23;41.31;100994.00;5004716;28;20042;-84
2022/05/30 09:27:50;;;;;;;1.70;1.05;;;;;;;17.31;42.70;100970.84;5025020;28;20048;-80
2022/05/30 09:30:21;;;;;;;3.75;1.17;;;;;;;17.08;43.93;100972.16;4989600;28;20125;-84
2022/05/30 09:33:19;;;;;;;6.72;1.60;;;;;;;18.04;42.54;100962.28;5014428;28;20487;-86
2022/05/30 09:35:44;;;;;;;5.93;1.98;;;;;;;18.50;41.47;100968.41;5030352;23;20111;-82
2022/05/30 09:38:21;;;;;;;2.65;1.73;;;;;;;18.88;39.56;100960.97;5010318;28;20037;-83
2022/05/30 09:40:51;;;;;;;4.07;1.50;;;;;;;19.03;39.10;100948.88;4987384;28;20029;-82
2022/05/30 09:43:30;;;;;;;19.60;2.35;;;;;;;19.30;37.49;100955.66;5031685;28;20048;-82
2022/05/30 09:45:56;;;;;;;3.47;1.63;;;;;;;19.21;38.17;100962.50;5047629;28;20029;-82
2022/05/30 09:48:23;;;;;;;17.02;3.25;;;;;;;19.27;39.42;100956.13;5026658;28;20026;-86
2022/05/30 09:50:53;;;;;;;3.10;1.15;;;;;;;19.72;38.24;100957.66;5005596;28;20024;-84
2022/05/30 09:53:42;;;;;;;4.18;1.33;;;;;;;20.12;37.97;100951.63;5006368;28;20044;-85
2022/05/30 09:56:10;;;;;;;4.40;1.27;;;;;;;19.97;37.57;100950.13;5022542;28;20499;-84
2022/05/30 09:58:46;;;;;;;1.75;1.23;;;;;;;19.81;37.46;100950.81;5008236;28;20107;-87
2022/05/30 10:01:23;;;;;;;2.72;1.25;;;;;;;19.75;39.08;100940.84;5010152;28;20060;-85
2022/05/30 10:03:52;;;;;;;3.10;1.40;;;;;;;20.26;38.00;100942.13;5036478;28;20042;-85
2022/05/30 10:06:20;;;;;;;1.67;1.05;;;;;;;20.38;38.22;100937.50;5019574;28;20422;-85
2022/05/30 10:08:46;;;;;;;3.08;1.20;;;;;;;20.61;38.21;100927.69;5037858;28;20056;-84
2022/05/30 10:11:32;;;;;;;7.55;1.52;;;;;;;19.52;40.55;100917.00;5022781;28;20434;-85
2022/05/30 10:13:58;;;;;;;3.10;1.10;;;;;;;18.46;41.29;100938.91;5020822;28;20038;-84
2022/05/30 10:16:33;;;;;;;2.38;1.10;;;;;;;17.38;43.47;100935.47;5008260;28;20037;-84
2022/05/30 10:19:03;;;;;;;3.28;1.23;;;;;;;16.66;48.41;100930.88;5039527;28;20032;-85
2022/05/30 10:28:36;;;;;;;5.20;1.73;;;;;;;19.22;44.43;100939.63;5022773;28;20034;-81
2022/05/30 10:31:16;;;;;;;3.00;1.58;;;;;;;20.84;38.41;100927.66;4972081;28;20411;-81
2022/05/30 10:34:04;;;;;;;2.00;1.63;;;;;;;23.83;35.13;100940.44;4986708;28;20362;-86
2022/05/30 10:36:33;;;;;;;3.25;1.55;;;;;;;25.28;30.53;100916.44;4997886;28;20301;-85
2022/05/30 10:39:02;;;;;;;2.53;1.20;;;;;;;26.24;28.88;100915.75;5013292;28;20116;-80
2022/05/30 10:41:41;;;;;;;2.55;1.30;;;;;;;26.71;27.09;100889.78;5027311;28;20082;-81
2022/05/30 10:44:21;;;;;;;3.95;1.65;;;;;;;26.08;27.66;100895.63;5006361;28;20037;-82
2022/05/30 10:47:10;;;;;;;3.13;1.10;;;;;;;24.14;30.13;100872.88;5029015;28;20026;-83
2022/05/30 10:49:41;;;;;;;2.53;1.60;;;;;;;23.80;29.84;100900.59;5005740;28;20033;-82
2022/05/30 10:52:12;;;;;;;3.45;1.35;;;;;;;26.03;27.93;100883.78;5012716;28;20048;-81
2022/05/30 10:54:42;;;;;;;3.33;1.10;;;;;;;26.65;26.07;100887.31;5020591;28;20104;-81
2022/05/30 10:57:39;;;;;;;3.47;1.27;;;;;;;25.34;27.83;100885.06;5029302;28;20286;-80
2022/05/30 11:00:14;;;;;;;3.03;1.20;;;;;;;22.87;31.90;100880.59;5030539;28;20087;-80
2022/05/30 11:02:58;;;;;;;7.13;1.38;;;;;;;19.87;41.68;100908.09;5018396;28;20474;-81
2022/05/30 11:05:29;;;;;;;4.07;1.35;;;;;;;17.73;48.73;100911.41;5027988;28;20124;-79
2022/05/30 11:08:17;;;;;;;3.58;1.48;;;;;;;15.85;62.18;100908.56;5047570;28;20037;-81
2022/05/30 11:10:49;;;;;;;4.35;1.52;;;;;;;14.82;69.77;100901.34;5010436;28;20069;-82
2022/05/30 11:13:34;;;;;;;2.65;1.40;;;;;;;14.51;74.74;100913.41;5011709;28;20021;-83
2022/05/30 11:16:23;;;;;;;4.25;1.55;;;;;;;14.71;74.76;100880.22;5025189;28;20033;-78
2022/05/30 11:18:54;;;;;;;1.95;1.20;;;;;;;15.43;73.19;100899.69;5023356;28;20049;-82
2022/05/30 11:21:27;;;;;;;4.47;1.50;;;;;;;16.45;66.18;100864.06;5014215;28;20120;-81
2022/05/30 11:23:52;;;;;;;1.23;1.08;;;;;;;17.78;65.14;100881.69;5008708;28;20033;-79
2022/05/30 11:26:24;;;;;;;1.50;1.00;;;;;;;18.84;57.18;100878.03;5043679;28;20387;-79
2022/05/30 11:29:28;;;;;;;1.90;1.25;;;;;;;19.27;55.88;100885.25;5020174;28;21644;-78
2022/05/30 11:32:03;;;;;;;3.20;1.95;;;;;;;22.28;47.37;100876.50;5020418;28;20395;-81
2022/05/30 11:34:39;;;;;;;2.55;1.33;;;;;;;23.25;43.75;100869.53;5009139;28;20038;-79
2022/05/30 11:37:29;;;;;;;2.53;1.40;;;;;;;23.46;38.23;100875.25;5029843;28;20022;-78
2022/05/30 11:39:55;;;;;;;3.83;1.33;;;;;;;24.25;37.05;100866.34;5025131;28;20033;-79
2022/05/30 11:42:27;;;;;;;1.55;1.30;;;;;;;24.01;34.44;100852.16;5016297;28;20022;-78
2022/05/30 11:44:59;;;;;;;2.38;1.00;;;;;;;24.36;32.08;100834.25;5041219;28;20037;-80
2022/05/30 11:48:00;;;;;;;2.22;1.50;;;;;;;23.07;33.55;100847.94;5035283;28;20029;-78
2022/05/30 11:50:36;;;;;;;1.50;1.40;;;;;;;23.77;33.44;100864.63;5010638;28;20041;-78
2022/05/30 11:53:40;;;;;;;2.28;1.13;;;;;;;22.86;36.68;100851.50;5011868;28;20483;-78
2022/05/30 11:56:27;;;;;;;1.77;1.35;;;;;;;23.11;36.11;100849.09;5003488;28;20364;-78
2022/05/30 11:59:12;;;;;;;3.55;1.40;;;;;;;25.62;31.90;100846.03;5024733;28;20053;-79
2022/05/30 12:01:41;;;;;;;2.25;1.30;;;;;;;25.94;29.30;100841.38;5044035;28;20352;-78